Time;durP1;ratioP1;P1;durP2;ratioP2;P2;SDS_P1;SDS_P2;PMS_P1;PMS_P2;Temp;Humidity;BMP_temperature;BMP_pressure;BME280_temperature;BME280_humidity;BME280_pressure;Samples;Min_cycle;Max_cycle;Signal;HPM_P1;HPM_P2
2022/05/03 00:02:05;;;;;;;13.90;12.43;;;10.20;99.90;;;;;;4971921;28;20433;-71
2022/05/03 00:04:49;;;;;;;16.30;12.60;;;10.20;99.90;;;;;;4972213;28;20400;-72
2022/05/03 00:07:26;;;;;;;17.67;14.63;;;10.20;99.90;;;;;;4972154;28;20768;-71
2022/05/03 00:10:01;;;;;;;13.57;11.93;;;10.20;99.90;;;;;;4972253;28;20438;-72
2022/05/03 00:12:39;;;;;;;13.03;11.77;;;10.20;99.90;;;;;;4971733;28;20901;-71
2022/05/03 00:15:06;;;;;;;13.83;12.43;;;10.20;99.90;;;;;;4972057;28;20431;-71
2022/05/03 00:17:32;;;;;;;14.27;12.83;;;10.30;99.90;;;;;;4971913;28;20520;-71
2022/05/03 00:19:59;;;;;;;12.57;11.30;;;10.30;99.90;;;;;;4972054;28;20481;-72
2022/05/03 00:22:25;;;;;;;14.87;12.93;;;10.30;99.90;;;;;;4971611;28;20812;-72
2022/05/03 00:24:54;;;;;;;12.87;11.60;;;10.30;99.90;;;;;;4972108;28;20418;-71
2022/05/03 00:27:23;;;;;;;13.30;11.97;;;10.30;99.90;;;;;;4974959;28;20175;-71
2022/05/03 00:29:49;;;;;;;12.37;11.20;;;10.30;99.90;;;;;;4975487;28;20849;-71
2022/05/03 00:32:15;;;;;;;12.73;11.43;;;10.30;99.90;;;;;;4975047;28;20461;-71
2022/05/03 00:34:43;;;;;;;12.60;11.47;;;10.20;99.90;;;;;;4975398;28;20470;-71
2022/05/03 00:37:08;;;;;;;13.97;12.20;;;10.20;99.90;;;;;;4975115;28;20499;-71
2022/05/03 00:39:34;;;;;;;12.93;11.53;;;10.20;99.90;;;;;;4974475;28;20507;-71
2022/05/03 00:42:20;;;;;;;12.30;11.00;;;10.20;99.90;;;;;;4974943;28;20690;-71
2022/05/03 00:45:03;;;;;;;11.87;10.67;;;10.20;99.90;;;;;;4975527;28;20687;-71
2022/05/03 00:47:40;;;;;;;12.50;11.10;;;10.10;99.90;;;;;;4973941;28;20417;-71
2022/05/03 00:50:12;;;;;;;12.60;11.40;;;10.10;99.90;;;;;;4975015;28;20426;-71
2022/05/03 00:53:06;;;;;;;14.10;12.63;;;10.10;99.90;;;;;;4974963;28;20492;-71
2022/05/03 00:55:45;;;;;;;11.73;10.73;;;10.00;99.90;;;;;;4975144;28;20857;-71
2022/05/03 00:58:35;;;;;;;12.43;11.20;;;10.00;99.90;;;;;;4974816;28;20485;-71
2022/05/03 02:31:43;;;;;;;13.03;11.83;;;8.40;99.90;;;;;;5654454;23;20498;-72
2022/05/03 02:34:45;;;;;;;16.07;14.20;;;8.30;99.90;;;;;;4944525;28;20860;-71
2022/05/03 02:37:34;;;;;;;15.47;13.53;;;8.30;99.90;;;;;;4947709;28;20427;-71
2022/05/03 02:40:03;;;;;;;15.53;13.80;;;8.30;99.90;;;;;;4931809;29;20444;-70
2022/05/03 02:42:28;;;;;;;16.13;13.67;;;8.30;99.90;;;;;;4933049;29;20499;-71
2022/05/03 02:44:56;;;;;;;15.50;13.20;;;8.20;99.90;;;;;;4933019;29;20932;-69
2022/05/03 02:47:30;;;;;;;16.53;14.87;;;8.20;99.90;;;;;;4933530;29;20613;-71
2022/05/03 02:50:05;;;;;;;16.20;14.50;;;8.20;99.90;;;;;;4933118;29;20955;-69
2022/05/03 02:52:51;;;;;;;19.77;16.23;;;8.20;99.90;;;;;;4932744;29;20425;-71
2022/05/03 02:55:21;;;;;;;14.97;13.13;;;8.20;99.90;;;;;;4932720;29;20406;-69
2022/05/03 02:58:22;;;;;;;16.87;15.07;;;8.10;99.90;;;;;;4933407;29;20466;-71
2022/05/03 03:04:08;;;;;;;18.73;15.13;;;8.00;99.90;;;;;;4933659;29;20463;-70
2022/05/03 03:06:37;;;;;;;17.90;14.83;;;8.00;99.90;;;;;;4933223;29;20890;-71
2022/05/03 03:09:03;;;;;;;16.20;14.50;;;7.90;99.90;;;;;;4933065;29;20408;-70
2022/05/03 03:11:42;;;;;;;21.40;16.17;;;7.90;99.90;;;;;;4934279;29;20801;-72
2022/05/03 03:14:32;;;;;;;17.33;15.40;;;7.80;99.90;;;;;;4938604;29;20418;-70
2022/05/03 03:17:06;;;;;;;17.53;15.63;;;7.80;99.90;;;;;;4937927;29;20417;-72
2022/05/03 03:19:52;;;;;;;17.83;15.90;;;7.80;99.90;;;;;;4934589;29;20463;-72
2022/05/03 03:22:20;;;;;;;19.50;15.77;;;7.80;99.90;;;;;;4932382;29;20435;-71
2022/05/03 03:24:48;;;;;;;18.03;15.53;;;7.80;99.90;;;;;;4932785;29;20426;-71
2022/05/03 03:27:14;;;;;;;20.10;17.53;;;7.80;99.90;;;;;;4933059;29;20419;-72
2022/05/03 03:29:41;;;;;;;20.40;17.93;;;7.80;99.90;;;;;;4933045;29;20459;-71
2022/05/03 03:32:08;;;;;;;20.47;17.47;;;7.80;99.90;;;;;;4931899;29;20544;-72
2022/05/03 03:34:36;;;;;;;18.93;15.07;;;7.90;99.90;;;;;;4933302;29;20429;-71
2022/05/03 03:37:05;;;;;;;16.70;15.00;;;7.90;99.90;;;;;;4932830;29;20452;-71
2022/05/03 03:39:31;;;;;;;25.13;16.73;;;7.90;99.90;;;;;;4933023;29;20441;-73
2022/05/03 03:42:05;;;;;;;24.80;15.83;;;7.90;99.90;;;;;;4932024;29;20444;-71
2022/05/03 03:44:31;;;;;;;18.80;15.70;;;7.80;99.90;;;;;;4932693;29;20784;-71
2022/05/03 03:46:58;;;;;;;22.43;15.13;;;7.80;99.90;;;;;;4932744;29;20402;-69
2022/05/03 03:49:24;;;;;;;18.50;15.30;;;7.80;99.90;;;;;;4932807;29;20866;-71
2022/05/03 03:51:50;;;;;;;17.53;15.67;;;7.80;99.90;;;;;;4932213;29;20434;-72
2022/05/03 03:54:16;;;;;;;19.23;14.97;;;7.80;99.90;;;;;;4932470;29;20560;-69
2022/05/03 03:56:44;;;;;;;20.97;16.50;;;7.70;99.90;;;;;;4932891;29;20421;-71
2022/05/03 03:59:09;;;;;;;20.93;17.30;;;7.80;99.90;;;;;;4932536;29;20456;-71
2022/05/03 04:01:35;;;;;;;24.63;17.40;;;7.70;99.90;;;;;;4934222;29;20447;-73
2022/05/03 04:04:03;;;;;;;18.87;16.87;;;7.80;99.90;;;;;;4936301;29;20186;-71
2022/05/03 04:06:29;;;;;;;16.67;14.80;;;7.70;99.90;;;;;;4936047;29;20174;-72
2022/05/03 04:08:54;;;;;;;21.63;16.03;;;7.70;99.90;;;;;;4936073;29;20984;-73
2022/05/03 04:11:20;;;;;;;24.07;18.17;;;7.70;99.90;;;;;;4935526;29;20237;-71
2022/05/03 04:13:45;;;;;;;19.77;16.57;;;7.70;99.90;;;;;;4936228;29;20180;-72
2022/05/03 04:16:11;;;;;;;22.93;16.47;;;7.70;99.90;;;;;;4936881;29;20181;-72
2022/05/03 04:18:46;;;;;;;27.33;17.53;;;7.70;99.90;;;;;;4937115;29;20457;-72
2022/05/03 04:21:16;;;;;;;17.47;15.30;;;7.70;99.90;;;;;;4934930;29;20251;-73
2022/05/03 04:23:42;;;;;;;20.07;17.57;;;7.70;99.90;;;;;;4936084;29;20420;-72
2022/05/03 04:26:09;;;;;;;19.67;17.13;;;7.80;99.90;;;;;;4935887;29;20900;-72
2022/05/03 04:28:35;;;;;;;18.63;16.33;;;7.80;99.90;;;;;;4935972;29;20408;-72
2022/05/03 04:31:00;;;;;;;24.10;17.57;;;7.90;99.90;;;;;;4934602;29;20906;-72
2022/05/03 04:33:26;;;;;;;19.63;17.57;;;8.00;99.90;;;;;;4935788;29;20441;-72
2022/05/03 04:35:51;;;;;;;21.57;17.13;;;8.00;99.90;;;;;;4935950;29;20182;-71
2022/05/03 04:38:17;;;;;;;21.03;18.23;;;8.10;99.90;;;;;;4935135;29;20676;-71
2022/05/03 04:40:42;;;;;;;22.50;18.07;;;8.10;99.90;;;;;;4934620;29;20225;-72
2022/05/03 04:43:08;;;;;;;23.63;17.93;;;8.20;99.90;;;;;;4935377;29;20172;-72
2022/05/03 04:45:33;;;;;;;20.63;17.90;;;8.20;99.90;;;;;;4935729;29;20680;-71
2022/05/03 04:47:59;;;;;;;19.50;17.03;;;8.20;99.90;;;;;;4935489;29;20267;-71
2022/05/03 04:50:24;;;;;;;21.07;18.70;;;8.30;99.90;;;;;;4935276;29;20193;-71
2022/05/03 04:52:51;;;;;;;24.93;18.70;;;8.40;99.90;;;;;;4934935;29;20208;-70
2022/05/03 04:55:17;;;;;;;25.83;19.63;;;8.40;99.90;;;;;;4935199;29;20175;-70
2022/05/03 04:57:42;;;;;;;27.23;21.77;;;8.60;99.90;;;;;;4935495;29;20983;-73
2022/05/03 05:00:08;;;;;;;25.80;20.77;;;8.60;99.90;;;;;;4935269;29;20420;-73
2022/05/03 05:02:34;;;;;;;26.67;19.77;;;8.70;99.90;;;;;;4934647;29;20638;-73
2022/05/03 05:04:59;;;;;;;22.87;20.30;;;8.80;99.90;;;;;;4935016;29;20511;-73
2022/05/03 05:07:25;;;;;;;25.70;19.43;;;9.00;99.90;;;;;;4934777;29;20234;-73
2022/05/03 05:12:35;;;;;;;23.73;19.63;;;9.20;99.90;;;;;;4934551;29;20256;-73
2022/05/03 05:15:00;;;;;;;25.00;18.70;;;9.50;99.90;;;;;;4934835;29;20460;-73
2022/05/03 05:17:26;;;;;;;18.57;16.57;;;10.40;99.90;;;;;;4934422;29;20280;-73
2022/05/03 05:19:51;;;;;;;20.60;16.17;;;11.90;99.90;;;;;;4935249;29;20181;-70
2022/05/03 05:22:17;;;;;;;16.13;14.50;;;13.50;99.90;;;;;;4934019;29;20205;-69
2022/05/03 05:24:42;;;;;;;15.67;14.07;;;14.90;99.90;;;;;;4935059;29;20612;-70
2022/05/03 05:27:08;;;;;;;18.33;12.70;;;16.10;99.90;;;;;;4934395;29;20182;-71
2022/05/03 05:29:34;;;;;;;13.93;12.63;;;16.80;99.90;;;;;;4933991;29;20548;-71
2022/05/03 05:31:59;;;;;;;14.50;13.00;;;17.30;99.90;;;;;;4931869;29;20228;-71
2022/05/03 05:34:25;;;;;;;15.70;14.10;;;17.90;99.90;;;;;;4932713;29;20422;-72
2022/05/03 05:36:50;;;;;;;14.53;12.93;;;18.40;99.90;;;;;;4933292;29;20209;-72
2022/05/03 05:39:16;;;;;;;13.67;12.33;;;18.70;99.90;;;;;;4932953;29;20290;-68
2022/05/03 05:41:41;;;;;;;13.70;12.43;;;19.00;99.90;;;;;;4932669;29;20197;-72
2022/05/03 05:44:07;;;;;;;13.43;12.13;;;19.60;99.90;;;;;;4933256;29;20178;-69
2022/05/03 05:46:32;;;;;;;13.60;12.20;;;19.60;99.90;;;;;;4934508;29;20199;-72
2022/05/03 05:48:58;;;;;;;14.10;12.70;;;20.10;99.90;;;;;;4933846;29;20181;-71
2022/05/03 05:51:23;;;;;;;13.83;12.63;;;20.50;99.90;;;;;;4933576;29;20285;-71
2022/05/03 05:53:49;;;;;;;15.43;14.00;;;20.20;99.90;;;;;;4934337;29;20205;-72
2022/05/03 05:56:14;;;;;;;17.77;13.23;;;20.60;99.90;;;;;;4932592;29;21193;-72
2022/05/03 05:58:40;;;;;;;15.23;13.63;;;20.90;99.90;;;;;;4932730;29;20205;-71
2022/05/03 06:01:05;;;;;;;15.77;14.07;;;21.00;99.90;;;;;;4933249;29;20201;-72
2022/05/03 06:03:33;;;;;;;15.57;14.03;;;21.10;99.90;;;;;;4934166;29;20182;-71
2022/05/03 06:05:59;;;;;;;16.40;14.63;;;20.70;99.90;;;;;;4933326;29;20693;-71
2022/05/03 06:08:25;;;;;;;17.57;14.60;;;20.60;99.90;;;;;;4932761;29;20539;-72
2022/05/03 06:10:51;;;;;;;16.67;14.87;;;20.30;99.90;;;;;;4933271;29;20993;-72
2022/05/03 06:13:17;;;;;;;17.80;16.03;;;20.10;99.90;;;;;;4933686;29;20636;-69
2022/05/03 06:15:43;;;;;;;19.37;17.40;;;19.70;99.90;;;;;;4934074;29;20424;-71
2022/05/03 06:18:09;;;;;;;22.30;15.60;;;19.40;99.90;;;;;;4933608;29;20957;-71
2022/05/03 06:20:36;;;;;;;18.57;16.20;;;18.90;99.90;;;;;;4933352;29;20177;-69
2022/05/03 06:23:02;;;;;;;21.50;16.17;;;18.50;99.90;;;;;;4935667;29;20185;-72
2022/05/03 06:25:28;;;;;;;20.10;18.00;;;18.70;99.90;;;;;;4939268;29;20785;-71
2022/05/03 06:27:53;;;;;;;19.90;17.80;;;18.80;99.90;;;;;;4938064;29;20421;-72
2022/05/03 06:30:19;;;;;;;25.97;19.17;;;19.00;99.90;;;;;;4933611;29;20662;-71
2022/05/03 06:32:45;;;;;;;19.63;16.73;;;19.10;99.90;;;;;;4931296;29;20348;-71
2022/05/03 06:35:11;;;;;;;21.40;16.70;;;19.30;99.90;;;;;;4933286;29;20205;-71
2022/05/03 06:37:39;;;;;;;18.10;16.20;;;19.40;99.90;;;;;;4933416;29;20359;-70
2022/05/03 06:40:09;;;;;;;20.07;15.33;;;19.50;99.90;;;;;;4933287;29;20803;-71
2022/05/03 06:42:39;;;;;;;19.33;15.70;;;19.50;99.90;;;;;;4932002;29;20827;-71
2022/05/03 06:45:07;;;;;;;27.30;16.90;;;19.30;99.90;;;;;;4933186;29;20413;-71
2022/05/03 06:47:32;;;;;;;19.17;17.27;;;19.50;99.90;;;;;;4933652;29;20906;-71
2022/05/03 06:49:58;;;;;;;19.60;15.93;;;19.70;99.90;;;;;;4933318;29;20425;-70
2022/05/03 06:52:25;;;;;;;16.40;14.73;;;20.00;99.90;;;;;;4932730;29;20280;-72
2022/05/03 06:54:51;;;;;;;18.13;16.23;;;20.20;99.90;;;;;;4931547;29;20249;-72
2022/05/03 06:57:16;;;;;;;16.87;15.20;;;20.10;99.90;;;;;;4933152;29;20417;-69
2022/05/03 06:59:42;;;;;;;19.73;15.27;;;20.20;99.90;;;;;;4933097;29;20209;-71
2022/05/03 07:02:08;;;;;;;16.10;14.27;;;20.50;99.90;;;;;;4932469;29;20280;-72
2022/05/03 07:04:34;;;;;;;20.60;15.37;;;20.10;99.90;;;;;;4932747;29;20589;-72
2022/05/03 07:07:00;;;;;;;21.47;15.93;;;20.20;99.90;;;;;;4933025;29;20452;-71
2022/05/03 07:09:25;;;;;;;17.00;13.67;;;20.20;99.90;;;;;;4933249;29;20193;-71
2022/05/03 07:11:51;;;;;;;15.63;14.13;;;20.20;99.90;;;;;;4932386;29;20612;-72
2022/05/03 07:14:16;;;;;;;14.63;13.13;;;20.60;99.90;;;;;;4932869;29;20181;-69
2022/05/03 07:16:42;;;;;;;15.03;13.53;;;20.70;99.90;;;;;;4933308;29;20180;-71
2022/05/03 07:24:35;;;;;;;12.67;11.47;;;21.20;99.90;;;;;;4933078;29;21013;-69
2022/05/03 07:27:02;;;;;;;13.00;10.67;;;21.40;99.90;;;;;;4932393;29;20509;-71
2022/05/03 07:29:27;;;;;;;9.97;8.97;;;21.60;99.90;;;;;;4933066;29;20236;-71
2022/05/03 07:31:53;;;;;;;10.40;9.30;;;21.90;99.90;;;;;;4932050;29;20452;-72
2022/05/03 07:34:18;;;;;;;9.17;8.27;;;21.70;99.90;;;;;;4932793;29;20192;-70
2022/05/03 07:36:44;;;;;;;10.30;9.30;;;22.00;99.90;;;;;;4935837;28;20185;-72
2022/05/03 07:39:10;;;;;;;11.30;10.10;;;22.20;99.90;;;;;;4936245;29;20244;-71
2022/05/03 07:41:36;;;;;;;14.73;9.00;;;22.10;99.90;;;;;;4935918;29;20275;-69
2022/05/03 07:44:02;;;;;;;13.13;10.57;;;22.20;99.90;;;;;;4936957;29;20966;-71
2022/05/03 07:46:27;;;;;;;12.37;9.83;;;22.10;99.90;;;;;;4935388;29;20429;-72
2022/05/03 07:48:54;;;;;;;10.10;8.97;;;22.00;99.90;;;;;;4936621;29;20635;-72
2022/05/03 07:51:21;;;;;;;9.07;8.20;;;22.10;99.90;;;;;;4934427;29;20770;-71
2022/05/03 07:53:46;;;;;;;9.80;8.90;;;21.90;99.90;;;;;;4936166;29;20413;-72
2022/05/03 07:56:12;;;;;;;8.03;7.33;;;21.80;99.90;;;;;;4936405;29;20784;-72
2022/05/03 07:58:37;;;;;;;7.67;6.80;;;22.40;99.90;;;;;;4936262;29;20201;-72
2022/05/03 08:01:07;;;;;;;9.20;8.50;;;22.60;99.90;;;;;;4935114;29;20561;-72
2022/05/03 08:03:32;;;;;;;10.60;9.60;;;22.70;99.90;;;;;;4936719;29;20528;-72
2022/05/03 08:05:58;;;;;;;10.37;9.30;;;23.30;99.90;;;;;;4936445;29;20416;-71
2022/05/03 08:08:23;;;;;;;8.97;8.07;;;23.10;99.90;;;;;;4936541;29;20615;-72
2022/05/03 08:10:49;;;;;;;9.27;8.37;;;23.50;99.90;;;;;;4935151;29;20173;-72
2022/05/03 08:13:15;;;;;;;10.23;9.33;;;23.40;99.90;;;;;;4936105;29;20185;-72
2022/05/03 08:15:40;;;;;;;9.90;8.93;;;23.20;99.90;;;;;;4936334;29;20662;-72
2022/05/03 08:18:06;;;;;;;11.03;8.97;;;23.00;99.90;;;;;;4935747;29;20205;-72
2022/05/03 08:20:32;;;;;;;11.23;8.63;;;22.90;99.90;;;;;;4935181;29;20185;-68
2022/05/03 08:22:59;;;;;;;8.57;7.77;;;22.60;99.90;;;;;;4935716;29;20950;-71
2022/05/03 08:25:25;;;;;;;8.30;7.50;;;23.20;99.90;;;;;;4936070;29;20409;-72
2022/05/03 08:27:51;;;;;;;7.20;6.60;;;23.90;99.90;;;;;;4935485;29;20421;-72
2022/05/03 08:30:16;;;;;;;7.47;6.80;;;24.50;99.90;;;;;;4935551;29;20213;-70
2022/05/03 08:32:42;;;;;;;8.40;6.50;;;24.90;99.90;;;;;;4935241;29;20590;-72
2022/05/03 08:35:08;;;;;;;6.90;6.40;;;24.60;99.90;;;;;;4935868;29;20496;-72
2022/05/03 08:43:08;;;;;;;7.20;6.50;;;25.80;99.90;;;;;;4935634;29;20549;-72
2022/05/03 08:45:34;;;;;;;6.63;6.13;;;25.90;99.90;;;;;;4935760;29;20499;-72
2022/05/03 08:48:03;;;;;;;7.07;6.50;;;26.20;99.90;;;;;;4934590;29;20807;-72
2022/05/03 08:50:31;;;;;;;9.47;7.13;;;25.90;99.90;;;;;;4935460;29;20878;-72
2022/05/03 08:53:05;;;;;;;8.90;7.97;;;25.40;99.90;;;;;;4935260;29;20655;-71
2022/05/03 08:55:31;;;;;;;6.53;5.90;;;24.90;99.90;;;;;;4935441;29;20434;-73
2022/05/03 08:57:57;;;;;;;6.00;5.50;;;24.40;99.90;;;;;;4934765;29;20461;-70
2022/05/03 09:00:24;;;;;;;9.07;7.20;;;24.20;99.90;;;;;;4935043;29;20173;-70
2022/05/03 09:02:55;;;;;;;7.33;6.30;;;24.00;99.90;;;;;;4935428;29;20433;-72
2022/05/03 09:05:22;;;;;;;10.60;6.37;;;23.90;99.90;;;;;;4935024;29;20530;-73
2022/05/03 09:07:59;;;;;;;6.77;5.27;;;23.80;99.90;;;;;;4934856;29;20421;-72
2022/05/03 09:10:34;;;;;;;5.70;5.20;;;23.60;99.90;;;;;;4934829;29;20436;-72
2022/05/03 09:13:22;;;;;;;4.90;4.57;;;23.80;99.90;;;;;;4936314;29;20449;-73
2022/05/03 09:15:56;;;;;;;4.20;3.80;;;23.70;99.90;;;;;;4940218;28;20431;-72
2022/05/03 09:18:29;;;;;;;2.77;2.67;;;23.10;99.90;;;;;;4939268;29;20524;-72
2022/05/03 09:26:16;;;;;;;3.77;3.27;;;23.10;99.90;;;;;;4934897;29;21110;-72
2022/05/03 09:28:53;;;;;;;4.07;3.77;;;23.10;99.90;;;;;;4934992;29;20421;-71
2022/05/03 09:31:36;;;;;;;9.10;4.07;;;23.00;99.90;;;;;;4933762;29;20452;-72
2022/05/03 09:34:04;;;;;;;4.00;3.80;;;22.60;99.90;;;;;;4934712;29;20791;-72
2022/05/03 09:36:43;;;;;;;3.67;3.37;;;22.40;99.90;;;;;;4934760;29;20420;-71
2022/05/03 09:39:30;;;;;;;3.20;3.00;;;22.90;99.90;;;;;;4934586;29;20524;-72
2022/05/03 09:42:09;;;;;;;3.03;2.83;;;24.00;99.90;;;;;;4933736;29;20441;-69
2022/05/03 09:44:40;;;;;;;2.67;2.57;;;24.80;99.90;;;;;;4934259;29;20440;-72
2022/05/03 09:47:09;;;;;;;3.80;2.80;;;25.10;99.90;;;;;;4934419;29;20422;-72
2022/05/03 09:49:37;;;;;;;2.83;2.73;;;25.40;99.90;;;;;;4934579;29;20997;-72
2022/05/03 09:52:04;;;;;;;2.33;2.13;;;25.20;98.60;;;;;;4933590;29;20440;-72
2022/05/03 09:54:49;;;;;;;2.10;2.00;;;25.20;97.40;;;;;;4934528;29;20950;-72
2022/05/03 09:57:21;;;;;;;3.77;2.30;;;24.90;99.00;;;;;;4934356;29;20487;-72
2022/05/03 09:59:48;;;;;;;2.13;1.60;;;25.20;97.60;;;;;;4933860;29;20493;-72
2022/05/03 10:02:17;;;;;;;1.93;1.83;;;25.50;97.70;;;;;;4933324;29;20842;-72
2022/05/03 10:04:44;;;;;;;1.80;1.70;;;25.80;96.50;;;;;;4933045;29;20509;-72
2022/05/03 10:07:10;;;;;;;3.67;1.97;;;26.40;96.20;;;;;;4933498;29;20428;-72
2022/05/03 10:09:36;;;;;;;3.93;3.30;;;26.60;98.00;;;;;;4934147;29;20855;-70
2022/05/03 10:12:04;;;;;;;2.90;2.77;;;26.20;97.50;;;;;;4933714;29;20204;-71
2022/05/03 10:14:29;;;;;;;2.97;2.80;;;26.60;97.90;;;;;;4916836;29;20216;-72
2022/05/03 10:22:29;;;;;;;3.07;2.87;;;28.00;98.00;;;;;;4933325;29;20589;-72
2022/05/03 10:24:55;;;;;;;3.17;3.07;;;28.00;96.50;;;;;;4933621;29;20424;-72
2022/05/03 10:27:27;;;;;;;3.30;3.10;;;28.00;95.90;;;;;;4933889;29;20748;-72
2022/05/03 10:30:16;;;;;;;2.50;2.23;;;27.80;95.10;;;;;;4933800;29;20429;-73
2022/05/03 10:32:42;;;;;;;2.93;2.73;;;27.90;94.70;;;;;;4933205;29;20444;-73
2022/05/03 10:35:34;;;;;;;5.33;2.97;;;27.80;95.90;;;;;;4932873;29;20788;-73
2022/05/03 10:38:00;;;;;;;3.60;3.40;;;27.80;95.10;;;;;;4933372;29;20980;-72
2022/05/03 10:40:31;;;;;;;3.10;2.73;;;27.50;95.10;;;;;;4933174;29;20418;-73
2022/05/03 10:43:09;;;;;;;3.20;3.07;;;27.60;94.10;;;;;;4933104;29;20212;-70
2022/05/03 10:45:57;;;;;;;3.70;3.50;;;27.40;94.50;;;;;;4933483;29;20417;-73
2022/05/03 10:48:30;;;;;;;3.80;3.20;;;27.30;94.70;;;;;;4932916;29;20413;-71
2022/05/03 10:50:59;;;;;;;3.90;3.60;;;27.00;95.90;;;;;;4932548;29;20441;-69
2022/05/03 10:53:27;;;;;;;3.50;3.30;;;26.90;94.30;;;;;;4933389;29;20468;-72
2022/05/03 10:56:06;;;;;;;4.63;4.33;;;27.20;95.30;;;;;;4933370;29;20417;-72
2022/05/03 10:58:34;;;;;;;4.40;4.00;;;27.50;94.80;;;;;;4932703;29;20524;-73
2022/05/03 11:01:06;;;;;;;3.53;3.30;;;27.50;93.50;;;;;;4932338;29;20495;-72
2022/05/03 11:03:37;;;;;;;5.30;4.80;;;27.40;94.70;;;;;;4933214;29;20421;-72
2022/05/03 11:06:22;;;;;;;4.80;4.40;;;27.10;93.50;;;;;;4933068;29;20469;-73
2022/05/03 11:09:05;;;;;;;5.30;4.90;;;26.90;95.80;;;;;;4933167;29;20424;-73
2022/05/03 11:11:39;;;;;;;6.70;5.73;;;26.80;93.90;;;;;;4930636;29;20484;-72
2022/05/03 11:14:24;;;;;;;4.33;3.93;;;26.40;92.90;;;;;;4931718;29;20475;-70
2022/05/03 11:17:09;;;;;;;5.17;4.87;;;26.30;95.00;;;;;;4933072;29;20484;-72
2022/05/03 11:19:49;;;;;;;5.13;4.73;;;26.20;94.50;;;;;;4932557;29;20817;-73
2022/05/03 11:22:26;;;;;;;6.10;5.50;;;26.20;94.90;;;;;;4932282;29;20441;-71
2022/05/03 11:24:54;;;;;;;5.67;5.10;;;26.00;94.10;;;;;;4934240;29;20416;-73
2022/05/03 11:27:21;;;;;;;5.30;4.90;;;25.90;94.30;;;;;;4934681;29;20508;-72
2022/05/03 11:29:47;;;;;;;5.97;5.37;;;26.00;97.80;;;;;;4933124;29;20496;-73
2022/05/03 11:32:15;;;;;;;7.03;6.33;;;26.00;98.20;;;;;;4931676;29;20511;-72
2022/05/03 11:34:42;;;;;;;4.93;4.60;;;25.80;97.50;;;;;;4933042;29;20492;-73
2022/05/03 11:37:07;;;;;;;5.43;5.03;;;26.00;99.90;;;;;;4932969;29;20421;-73
2022/05/03 11:39:37;;;;;;;5.80;5.40;;;25.80;99.10;;;;;;4932880;29;20460;-73
2022/05/03 11:42:09;;;;;;;4.70;4.40;;;25.50;97.90;;;;;;4932061;29;20248;-73
2022/05/03 11:44:40;;;;;;;6.33;5.73;;;25.20;98.50;;;;;;4931909;29;20885;-73
2022/05/03 11:47:05;;;;;;;5.33;4.87;;;24.50;99.40;;;;;;4933055;29;20516;-72
2022/05/03 11:49:32;;;;;;;6.40;5.90;;;24.20;99.90;;;;;;4933080;29;20500;-73
2022/05/03 11:57:38;;;;;;;6.30;4.53;;;24.50;99.90;;;;;;4932814;29;20428;-72
2022/05/03 12:00:06;;;;;;;6.47;5.97;;;24.80;99.90;;;;;;4932397;29;20409;-73
2022/05/03 12:02:42;;;;;;;5.83;5.33;;;24.40;99.90;;;;;;4932123;29;20449;-73
2022/05/03 12:05:10;;;;;;;6.20;5.63;;;24.20;99.90;;;;;;4932657;29;20401;-73
2022/05/03 12:07:37;;;;;;;6.27;5.87;;;23.90;99.90;;;;;;4932635;29;20405;-71
2022/05/03 12:10:27;;;;;;;5.50;5.10;;;23.90;99.90;;;;;;4932608;29;20937;-73
2022/05/03 12:13:09;;;;;;;9.20;5.80;;;24.00;99.90;;;;;;4931996;29;20430;-73
2022/05/03 12:15:41;;;;;;;5.37;4.93;;;23.90;99.90;;;;;;4932717;29;20786;-71
2022/05/03 12:18:15;;;;;;;6.47;5.87;;;24.00;99.90;;;;;;4932313;29;20465;-72
2022/05/03 12:20:46;;;;;;;6.80;6.10;;;24.00;99.90;;;;;;4931878;29;20432;-73
2022/05/03 12:23:14;;;;;;;6.73;5.90;;;23.60;99.70;;;;;;4934912;29;20413;-73
2022/05/03 12:25:41;;;;;;;8.17;5.63;;;23.50;99.90;;;;;;4935857;29;20922;-72
2022/05/03 12:28:07;;;;;;;6.97;6.03;;;23.70;99.90;;;;;;4935900;29;21017;-72
2022/05/03 12:30:34;;;;;;;5.63;5.10;;;23.90;99.90;;;;;;4935219;29;20496;-71
2022/05/03 12:33:06;;;;;;;5.03;4.63;;;24.20;99.90;;;;;;4934943;29;20767;-72
2022/05/03 12:35:34;;;;;;;21.77;5.90;;;24.60;99.90;;;;;;4936735;29;20428;-73
2022/05/03 12:38:15;;;;;;;6.73;6.13;;;24.90;99.90;;;;;;4940672;29;20961;-72
2022/05/03 12:40:47;;;;;;;6.00;5.13;;;25.10;99.90;;;;;;4939145;29;20421;-73
2022/05/03 12:43:20;;;;;;;5.37;4.87;;;25.20;99.90;;;;;;4937705;29;20430;-72
2022/05/03 12:45:59;;;;;;;5.40;4.93;;;25.10;99.20;;;;;;4935803;29;20409;-68
2022/05/03 12:48:27;;;;;;;3.93;3.30;;;24.90;99.90;;;;;;4935651;29;20413;-70
2022/05/03 12:50:53;;;;;;;6.50;5.33;;;24.70;99.90;;;;;;4934816;29;20421;-70
2022/05/03 12:53:24;;;;;;;4.70;4.40;;;23.90;99.90;;;;;;4934800;29;20417;-69
2022/05/03 12:55:50;;;;;;;4.47;4.10;;;23.60;99.90;;;;;;4935460;29;20793;-70
2022/05/03 12:58:27;;;;;;;5.40;3.90;;;23.20;99.90;;;;;;4935262;29;20559;-67
2022/05/03 13:00:54;;;;;;;3.70;3.30;;;22.90;99.90;;;;;;4934754;29;20236;-70
2022/05/03 13:03:21;;;;;;;5.17;3.80;;;22.40;99.90;;;;;;4934637;29;20444;-69
2022/05/03 13:05:48;;;;;;;4.57;4.00;;;22.10;99.90;;;;;;4935256;29;20922;-70
2022/05/03 13:08:15;;;;;;;3.70;3.50;;;21.70;99.90;;;;;;4935079;29;20516;-70
2022/05/03 13:10:41;;;;;;;3.87;3.60;;;21.40;99.90;;;;;;4932708;29;20436;-69
2022/05/03 13:13:06;;;;;;;5.70;3.90;;;21.20;99.90;;;;;;4934946;29;20840;-70
2022/05/03 13:15:32;;;;;;;3.73;3.43;;;20.80;99.90;;;;;;4935183;29;20181;-72
2022/05/03 13:17:59;;;;;;;4.63;3.83;;;20.40;99.90;;;;;;4934864;29;20227;-70
2022/05/03 13:20:25;;;;;;;6.50;4.70;;;19.90;99.90;;;;;;4916115;29;20461;-70
2022/05/03 13:22:51;;;;;;;4.37;3.97;;;19.30;99.90;;;;;;4907367;29;20466;-72
2022/05/03 13:25:17;;;;;;;5.27;3.90;;;18.90;99.90;;;;;;4912654;29;20827;-70
2022/05/03 13:27:43;;;;;;;4.70;3.67;;;18.70;99.90;;;;;;4915396;29;20182;-72
2022/05/03 13:30:09;;;;;;;4.30;3.33;;;18.30;99.90;;;;;;4914913;29;20417;-72
2022/05/03 13:32:34;;;;;;;4.43;3.10;;;18.10;99.90;;;;;;4922500;29;20214;-72
2022/05/03 13:35:00;;;;;;;4.20;3.80;;;17.90;99.90;;;;;;4913343;29;20834;-72
2022/05/03 13:40:28;;;;;;;7.10;5.00;;;17.50;99.90;;;;;;4914388;29;20193;-72
2022/05/03 13:42:55;;;;;;;7.00;4.57;;;17.20;99.90;;;;;;4912300;29;20484;-70
2022/05/03 13:45:20;;;;;;;5.40;4.90;;;16.90;99.90;;;;;;4904136;29;20477;-72
2022/05/03 13:47:46;;;;;;;6.77;5.50;;;16.60;99.90;;;;;;4915119;29;20421;-72
2022/05/03 13:50:12;;;;;;;4.87;4.47;;;16.30;99.90;;;;;;4915078;29;20610;-71
2022/05/03 13:52:39;;;;;;;8.13;4.80;;;16.10;99.90;;;;;;4916429;29;20228;-71
2022/05/03 13:55:05;;;;;;;5.47;4.83;;;16.00;99.90;;;;;;4912782;29;20626;-73
2022/05/03 13:57:32;;;;;;;6.73;4.73;;;16.00;99.90;;;;;;4912684;29;20540;-72
2022/05/03 13:59:58;;;;;;;7.13;5.70;;;15.80;99.90;;;;;;4910301;29;20485;-72
2022/05/03 14:02:23;;;;;;;9.80;6.47;;;15.80;99.90;;;;;;4913831;29;20517;-73
2022/05/03 14:04:49;;;;;;;12.20;6.43;;;15.70;99.90;;;;;;4914700;29;20789;-73
2022/05/03 14:07:16;;;;;;;5.67;5.17;;;15.60;99.90;;;;;;4914897;29;20185;-75
2022/05/03 14:09:42;;;;;;;12.03;6.07;;;15.50;99.90;;;;;;4920254;29;20190;-74
2022/05/03 14:12:09;;;;;;;7.40;6.57;;;15.50;99.90;;;;;;4922156;29;20461;-73
2022/05/03 14:14:35;;;;;;;6.47;5.83;;;15.40;99.90;;;;;;4940448;29;20475;-74
2022/05/03 14:17:00;;;;;;;9.60;6.60;;;15.40;99.90;;;;;;4915959;29;20453;-72
2022/05/03 14:19:26;;;;;;;6.30;5.57;;;15.40;99.90;;;;;;4903267;29;20477;-72
2022/05/03 14:21:54;;;;;;;7.40;5.70;;;15.40;99.90;;;;;;4908518;29;20210;-72
2022/05/03 14:24:19;;;;;;;8.63;5.57;;;15.40;99.90;;;;;;4911304;29;20281;-68
2022/05/03 14:26:45;;;;;;;5.90;5.40;;;15.40;99.90;;;;;;4907690;29;20521;-69
2022/05/03 14:29:11;;;;;;;9.63;5.80;;;15.30;99.90;;;;;;4919934;29;20192;-72
2022/05/03 14:31:37;;;;;;;8.30;5.33;;;15.30;99.90;;;;;;4926849;29;20491;-70
2022/05/03 14:34:04;;;;;;;5.90;5.30;;;15.40;99.90;;;;;;4923161;29;20209;-71
2022/05/03 14:36:31;;;;;;;12.07;5.03;;;15.30;99.90;;;;;;4932234;29;21037;-71
2022/05/03 14:38:57;;;;;;;4.50;4.03;;;15.30;99.90;;;;;;4917190;29;20933;-69
2022/05/03 14:41:22;;;;;;;6.20;4.83;;;15.30;99.90;;;;;;4911375;29;20446;-71
2022/05/03 14:43:48;;;;;;;4.97;4.37;;;15.30;99.90;;;;;;4913066;29;20184;-72
2022/05/03 14:46:13;;;;;;;5.13;4.03;;;15.30;99.90;;;;;;4913982;29;20178;-72
2022/05/03 14:48:40;;;;;;;6.00;5.33;;;15.30;99.90;;;;;;4913547;29;20193;-72
2022/05/03 14:51:05;;;;;;;5.10;4.37;;;15.40;99.90;;;;;;4913634;29;20205;-71
2022/05/03 14:53:31;;;;;;;5.03;4.43;;;15.40;99.90;;;;;;4913971;29;20418;-71
2022/05/03 15:04:08;;;;;;;6.80;4.43;;;15.60;99.90;;;;;;4914129;29;20417;-71